sensor_id;sensor_type;location;lat;lon;timestamp;temperature;humidity
55135;DHT22;41031;44.750;11.308;2022-09-09T00:00:53;22.10;90.50
55135;DHT22;41031;44.750;11.308;2022-09-09T00:03:49;22.10;90.50
55135;DHT22;41031;44.750;11.308;2022-09-09T00:06:34;22.10;90.40
55135;DHT22;41031;44.750;11.308;2022-09-09T00:09:18;22.10;90.40
55135;DHT22;41031;44.750;11.308;2022-09-09T00:12:04;22.10;90.50
55135;DHT22;41031;44.750;11.308;2022-09-09T00:14:54;22.00;90.50
55135;DHT22;41031;44.750;11.308;2022-09-09T00:17:58;22.00;90.50
55135;DHT22;41031;44.750;11.308;2022-09-09T00:23:53;22.00;90.40
55135;DHT22;41031;44.750;11.308;2022-09-09T00:31:34;21.90;90.30
55135;DHT22;41031;44.750;11.308;2022-09-09T00:34:14;21.90;90.30
55135;DHT22;41031;44.750;11.308;2022-09-09T00:36:44;21.90;90.30
55135;DHT22;41031;44.750;11.308;2022-09-09T00:39:39;21.90;90.30
55135;DHT22;41031;44.750;11.308;2022-09-09T00:42:23;21.80;90.40
55135;DHT22;41031;44.750;11.308;2022-09-09T00:47:54;21.80;90.40
55135;DHT22;41031;44.750;11.308;2022-09-09T00:52:59;21.80;90.30
55135;DHT22;41031;44.750;11.308;2022-09-09T00:55:53;21.80;90.30
55135;DHT22;41031;44.750;11.308;2022-09-09T00:58:21;21.70;90.30
55135;DHT22;41031;44.750;11.308;2022-09-09T01:03:38;21.70;90.20
55135;DHT22;41031;44.750;11.308;2022-09-09T01:06:22;21.70;90.20
55135;DHT22;41031;44.750;11.308;2022-09-09T01:12:17;21.70;90.30
55135;DHT22;41031;44.750;11.308;2022-09-09T01:14:51;21.60;90.10
55135;DHT22;41031;44.750;11.308;2022-09-09T01:17:28;21.60;90.10
55135;DHT22;41031;44.750;11.308;2022-09-09T01:28:32;21.40;90.10
55135;DHT22;41031;44.750;11.308;2022-09-09T01:31:09;21.30;90.20
55135;DHT22;41031;44.750;11.308;2022-09-09T01:33:43;21.30;90.30
55135;DHT22;41031;44.750;11.308;2022-09-09T01:36:31;21.30;90.40
55135;DHT22;41031;44.750;11.308;2022-09-09T01:39:01;21.30;90.50
55135;DHT22;41031;44.750;11.308;2022-09-09T01:41:28;21.30;90.50
55135;DHT22;41031;44.750;11.308;2022-09-09T01:44:02;21.30;90.40
55135;DHT22;41031;44.750;11.308;2022-09-09T01:46:32;21.20;90.50
55135;DHT22;41031;44.750;11.308;2022-09-09T01:49:00;21.20;90.50
55135;DHT22;41031;44.750;11.308;2022-09-09T01:51:28;21.20;90.50
55135;DHT22;41031;44.750;11.308;2022-09-09T01:53:59;21.20;90.50
55135;DHT22;41031;44.750;11.308;2022-09-09T02:04:56;21.10;90.30
55135;DHT22;41031;44.750;11.308;2022-09-09T02:07:48;21.10;90.40
55135;DHT22;41031;44.750;11.308;2022-09-09T02:13:22;21.00;90.60
55135;DHT22;41031;44.750;11.308;2022-09-09T02:18:48;21.00;90.70
55135;DHT22;41031;44.750;11.308;2022-09-09T02:21:18;21.00;90.80
55135;DHT22;41031;44.750;11.308;2022-09-09T02:23:48;21.00;90.90
55135;DHT22;41031;44.750;11.308;2022-09-09T02:26:16;21.00;90.90
55135;DHT22;41031;44.750;11.308;2022-09-09T02:28:52;21.00;90.80
55135;DHT22;41031;44.750;11.308;2022-09-09T02:31:22;20.90;90.80
55135;DHT22;41031;44.750;11.308;2022-09-09T02:33:59;20.90;90.80
55135;DHT22;41031;44.750;11.308;2022-09-09T02:36:29;20.90;91.00
55135;DHT22;41031;44.750;11.308;2022-09-09T02:39:00;20.90;91.10
55135;DHT22;41031;44.750;11.308;2022-09-09T02:41:36;20.90;91.20
55135;DHT22;41031;44.750;11.308;2022-09-09T02:44:15;20.90;91.10
55135;DHT22;41031;44.750;11.308;2022-09-09T02:47:05;20.90;91.00
55135;DHT22;41031;44.750;11.308;2022-09-09T02:52:27;20.90;91.20
55135;DHT22;41031;44.750;11.308;2022-09-09T02:55:02;21.00;91.20
55135;DHT22;41031;44.750;11.308;2022-09-09T02:57:32;21.00;91.20
55135;DHT22;41031;44.750;11.308;2022-09-09T03:00:00;21.00;91.10
55135;DHT22;41031;44.750;11.308;2022-09-09T03:02:30;21.00;91.00
55135;DHT22;41031;44.750;11.308;2022-09-09T03:05:03;21.00;91.10
55135;DHT22;41031;44.750;11.308;2022-09-09T03:07:30;20.90;91.00
55135;DHT22;41031;44.750;11.308;2022-09-09T03:09:57;20.90;90.70
55135;DHT22;41031;44.750;11.308;2022-09-09T03:12:26;20.90;90.60
55135;DHT22;41031;44.750;11.308;2022-09-09T03:14:53;20.80;90.90
55135;DHT22;41031;44.750;11.308;2022-09-09T03:17:21;20.80;90.70
55135;DHT22;41031;44.750;11.308;2022-09-09T03:19:52;20.80;90.80
55135;DHT22;41031;44.750;11.308;2022-09-09T03:22:21;20.80;90.90
55135;DHT22;41031;44.750;11.308;2022-09-09T03:24:49;20.80;91.00
55135;DHT22;41031;44.750;11.308;2022-09-09T03:27:16;20.80;91.00
55135;DHT22;41031;44.750;11.308;2022-09-09T03:29:44;20.80;91.00
55135;DHT22;41031;44.750;11.308;2022-09-09T03:32:17;20.80;91.00
55135;DHT22;41031;44.750;11.308;2022-09-09T03:34:44;20.80;91.10
55135;DHT22;41031;44.750;11.308;2022-09-09T03:37:15;20.80;91.10
55135;DHT22;41031;44.750;11.308;2022-09-09T03:39:42;20.80;91.00
55135;DHT22;41031;44.750;11.308;2022-09-09T03:42:14;20.70;91.00
55135;DHT22;41031;44.750;11.308;2022-09-09T03:44:41;20.70;91.00
55135;DHT22;41031;44.750;11.308;2022-09-09T03:47:09;20.70;91.10
55135;DHT22;41031;44.750;11.308;2022-09-09T03:49:36;20.70;91.20
55135;DHT22;41031;44.750;11.308;2022-09-09T03:52:04;20.70;91.20
55135;DHT22;41031;44.750;11.308;2022-09-09T03:54:31;20.70;91.10
55135;DHT22;41031;44.750;11.308;2022-09-09T03:56:58;20.70;91.10
55135;DHT22;41031;44.750;11.308;2022-09-09T03:59:25;20.60;91.10
55135;DHT22;41031;44.750;11.308;2022-09-09T04:01:53;20.60;91.10
55135;DHT22;41031;44.750;11.308;2022-09-09T04:04:21;20.60;91.10
55135;DHT22;41031;44.750;11.308;2022-09-09T04:06:48;20.60;91.00
55135;DHT22;41031;44.750;11.308;2022-09-09T04:09:17;20.60;91.00
55135;DHT22;41031;44.750;11.308;2022-09-09T04:11:45;20.50;91.10
55135;DHT22;41031;44.750;11.308;2022-09-09T04:14:14;20.50;91.10
55135;DHT22;41031;44.750;11.308;2022-09-09T04:16:40;20.50;91.10
55135;DHT22;41031;44.750;11.308;2022-09-09T04:19:11;20.50;90.90
55135;DHT22;41031;44.750;11.308;2022-09-09T04:21:42;20.40;90.40
55135;DHT22;41031;44.750;11.308;2022-09-09T04:24:09;20.40;90.30
55135;DHT22;41031;44.750;11.308;2022-09-09T04:26:36;20.30;90.60
55135;DHT22;41031;44.750;11.308;2022-09-09T04:29:04;20.30;91.00
55135;DHT22;41031;44.750;11.308;2022-09-09T04:31:32;20.30;91.40
55135;DHT22;41031;44.750;11.308;2022-09-09T04:34:00;20.30;91.60
55135;DHT22;41031;44.750;11.308;2022-09-09T04:36:32;20.30;91.80
55135;DHT22;41031;44.750;11.308;2022-09-09T04:39:03;20.40;91.90
55135;DHT22;41031;44.750;11.308;2022-09-09T04:41:30;20.50;92.20
55135;DHT22;41031;44.750;11.308;2022-09-09T04:43:58;20.50;92.40
55135;DHT22;41031;44.750;11.308;2022-09-09T04:46:27;20.60;92.40
55135;DHT22;41031;44.750;11.308;2022-09-09T04:48:56;20.70;92.50
55135;DHT22;41031;44.750;11.308;2022-09-09T04:51:27;20.70;92.50
55135;DHT22;41031;44.750;11.308;2022-09-09T04:53:54;20.80;92.50
55135;DHT22;41031;44.750;11.308;2022-09-09T04:56:22;20.90;92.60
55135;DHT22;41031;44.750;11.308;2022-09-09T04:58:52;20.90;92.60
55135;DHT22;41031;44.750;11.308;2022-09-09T05:01:22;21.00;92.60
55135;DHT22;41031;44.750;11.308;2022-09-09T05:03:52;21.00;92.70
55135;DHT22;41031;44.750;11.308;2022-09-09T05:06:22;21.00;92.90
55135;DHT22;41031;44.750;11.308;2022-09-09T05:08:55;21.10;92.90
55135;DHT22;41031;44.750;11.308;2022-09-09T05:11:30;21.10;93.00
55135;DHT22;41031;44.750;11.308;2022-09-09T05:14:06;21.20;93.00
55135;DHT22;41031;44.750;11.308;2022-09-09T05:16:34;21.20;93.10
55135;DHT22;41031;44.750;11.308;2022-09-09T05:19:02;21.30;93.20
55135;DHT22;41031;44.750;11.308;2022-09-09T05:21:41;21.40;93.30
55135;DHT22;41031;44.750;11.308;2022-09-09T05:24:08;21.40;93.30
55135;DHT22;41031;44.750;11.308;2022-09-09T05:26:35;21.50;93.40
55135;DHT22;41031;44.750;11.308;2022-09-09T05:29:02;21.50;93.40
55135;DHT22;41031;44.750;11.308;2022-09-09T05:31:30;21.50;93.40
55135;DHT22;41031;44.750;11.308;2022-09-09T05:34:01;21.60;93.30
55135;DHT22;41031;44.750;11.308;2022-09-09T05:36:29;21.60;93.30
55135;DHT22;41031;44.750;11.308;2022-09-09T05:38:56;21.60;93.40
55135;DHT22;41031;44.750;11.308;2022-09-09T05:41:26;21.60;93.50
55135;DHT22;41031;44.750;11.308;2022-09-09T05:43:55;21.70;93.60
55135;DHT22;41031;44.750;11.308;2022-09-09T05:46:24;21.70;93.70
55135;DHT22;41031;44.750;11.308;2022-09-09T05:48:53;21.80;93.80
55135;DHT22;41031;44.750;11.308;2022-09-09T05:51:29;21.80;93.90
55135;DHT22;41031;44.750;11.308;2022-09-09T05:54:03;21.90;94.00
55135;DHT22;41031;44.750;11.308;2022-09-09T05:56:34;21.90;94.00
55135;DHT22;41031;44.750;11.308;2022-09-09T05:59:01;21.90;94.00
55135;DHT22;41031;44.750;11.308;2022-09-09T06:01:31;22.00;94.10
55135;DHT22;41031;44.750;11.308;2022-09-09T06:04:00;22.00;94.40
55135;DHT22;41031;44.750;11.308;2022-09-09T06:06:31;22.00;94.20
55135;DHT22;41031;44.750;11.308;2022-09-09T06:08:59;22.10;94.30
55135;DHT22;41031;44.750;11.308;2022-09-09T06:11:33;22.10;94.30
55135;DHT22;41031;44.750;11.308;2022-09-09T06:14:01;22.20;94.40
55135;DHT22;41031;44.750;11.308;2022-09-09T06:16:30;22.20;94.40
55135;DHT22;41031;44.750;11.308;2022-09-09T06:19:00;22.30;94.40
55135;DHT22;41031;44.750;11.308;2022-09-09T06:21:36;22.30;94.40
55135;DHT22;41031;44.750;11.308;2022-09-09T06:24:06;22.40;94.30
55135;DHT22;41031;44.750;11.308;2022-09-09T06:26:38;22.40;94.20
55135;DHT22;41031;44.750;11.308;2022-09-09T06:29:12;22.40;94.20
55135;DHT22;41031;44.750;11.308;2022-09-09T06:31:41;22.50;94.20
55135;DHT22;41031;44.750;11.308;2022-09-09T06:34:19;22.50;94.30
55135;DHT22;41031;44.750;11.308;2022-09-09T06:36:49;22.60;94.20
55135;DHT22;41031;44.750;11.308;2022-09-09T06:39:17;22.60;94.20
55135;DHT22;41031;44.750;11.308;2022-09-09T06:41:45;22.60;94.10
55135;DHT22;41031;44.750;11.308;2022-09-09T06:44:38;22.70;94.10
55135;DHT22;41031;44.750;11.308;2022-09-09T06:47:09;22.70;94.00
55135;DHT22;41031;44.750;11.308;2022-09-09T06:49:39;22.70;93.80
55135;DHT22;41031;44.750;11.308;2022-09-09T06:52:09;22.70;93.70
55135;DHT22;41031;44.750;11.308;2022-09-09T06:54:36;22.70;93.80
55135;DHT22;41031;44.750;11.308;2022-09-09T06:57:05;22.70;94.00
55135;DHT22;41031;44.750;11.308;2022-09-09T06:59:55;22.70;93.90
55135;DHT22;41031;44.750;11.308;2022-09-09T07:02:23;22.70;93.80
55135;DHT22;41031;44.750;11.308;2022-09-09T07:04:51;22.70;93.90
55135;DHT22;41031;44.750;11.308;2022-09-09T07:07:18;22.70;94.10
55135;DHT22;41031;44.750;11.308;2022-09-09T07:09:46;22.70;94.00
55135;DHT22;41031;44.750;11.308;2022-09-09T07:12:14;22.70;94.20
55135;DHT22;41031;44.750;11.308;2022-09-09T07:14:48;22.70;94.20
55135;DHT22;41031;44.750;11.308;2022-09-09T07:17:16;22.80;94.30
55135;DHT22;41031;44.750;11.308;2022-09-09T07:19:43;22.90;94.30
55135;DHT22;41031;44.750;11.308;2022-09-09T07:22:10;22.90;94.10
55135;DHT22;41031;44.750;11.308;2022-09-09T07:24:38;23.00;94.00
55135;DHT22;41031;44.750;11.308;2022-09-09T07:27:05;23.10;94.10
55135;DHT22;41031;44.750;11.308;2022-09-09T07:29:34;23.10;93.80
55135;DHT22;41031;44.750;11.308;2022-09-09T07:32:02;23.10;93.60
55135;DHT22;41031;44.750;11.308;2022-09-09T07:34:34;23.10;93.50
55135;DHT22;41031;44.750;11.308;2022-09-09T07:37:02;23.10;93.40
55135;DHT22;41031;44.750;11.308;2022-09-09T07:39:30;23.10;93.50
55135;DHT22;41031;44.750;11.308;2022-09-09T07:41:57;23.10;93.60
55135;DHT22;41031;44.750;11.308;2022-09-09T07:44:25;23.20;93.60
55135;DHT22;41031;44.750;11.308;2022-09-09T07:47:03;23.30;93.50
55135;DHT22;41031;44.750;11.308;2022-09-09T07:49:36;23.40;93.40
55135;DHT22;41031;44.750;11.308;2022-09-09T07:52:04;23.50;93.40
55135;DHT22;41031;44.750;11.308;2022-09-09T07:54:33;23.70;93.30
55135;DHT22;41031;44.750;11.308;2022-09-09T07:57:03;23.80;92.70
55135;DHT22;41031;44.750;11.308;2022-09-09T07:59:33;23.80;91.70
55135;DHT22;41031;44.750;11.308;2022-09-09T08:02:00;23.80;91.70
55135;DHT22;41031;44.750;11.308;2022-09-09T08:04:30;23.90;91.40
55135;DHT22;41031;44.750;11.308;2022-09-09T08:06:59;24.00;91.50
55135;DHT22;41031;44.750;11.308;2022-09-09T08:09:29;24.00;91.30
55135;DHT22;41031;44.750;11.308;2022-09-09T08:12:15;24.10;91.30
55135;DHT22;41031;44.750;11.308;2022-09-09T08:14:43;24.20;91.20
55135;DHT22;41031;44.750;11.308;2022-09-09T08:17:10;24.40;91.10
55135;DHT22;41031;44.750;11.308;2022-09-09T08:19:38;24.60;90.60
55135;DHT22;41031;44.750;11.308;2022-09-09T08:22:10;24.80;90.50
55135;DHT22;41031;44.750;11.308;2022-09-09T08:24:39;25.00;90.30
55135;DHT22;41031;44.750;11.308;2022-09-09T08:27:07;25.30;90.10
55135;DHT22;41031;44.750;11.308;2022-09-09T08:29:34;25.60;87.40
55135;DHT22;41031;44.750;11.308;2022-09-09T08:32:01;25.80;84.50
55135;DHT22;41031;44.750;11.308;2022-09-09T08:34:30;25.90;84.50
55135;DHT22;41031;44.750;11.308;2022-09-09T08:37:01;26.20;84.30
55135;DHT22;41031;44.750;11.308;2022-09-09T08:39:34;26.40;81.80
55135;DHT22;41031;44.750;11.308;2022-09-09T08:42:31;26.50;79.60
55135;DHT22;41031;44.750;11.308;2022-09-09T08:45:27;26.60;78.30
55135;DHT22;41031;44.750;11.308;2022-09-09T08:48:21;26.70;77.50
55135;DHT22;41031;44.750;11.308;2022-09-09T08:50:53;26.80;77.80
55135;DHT22;41031;44.750;11.308;2022-09-09T08:53:44;27.00;77.90
55135;DHT22;41031;44.750;11.308;2022-09-09T08:56:18;27.30;77.00
55135;DHT22;41031;44.750;11.308;2022-09-09T08:58:50;27.50;75.60
55135;DHT22;41031;44.750;11.308;2022-09-09T09:01:48;27.70;75.40
55135;DHT22;41031;44.750;11.308;2022-09-09T09:13:14;28.20;71.30
55135;DHT22;41031;44.750;11.308;2022-09-09T09:15:44;28.30;70.60
55135;DHT22;41031;44.750;11.308;2022-09-09T09:18:14;28.40;69.50
55135;DHT22;41031;44.750;11.308;2022-09-09T09:21:02;28.50;68.90
55135;DHT22;41031;44.750;11.308;2022-09-09T09:24:16;28.70;67.50
55135;DHT22;41031;44.750;11.308;2022-09-09T09:26:36;28.80;66.90
55135;DHT22;41031;44.750;11.308;2022-09-09T09:29:17;29.00;65.50
55135;DHT22;41031;44.750;11.308;2022-09-09T09:31:51;29.10;64.60
55135;DHT22;41031;44.750;11.308;2022-09-09T09:34:19;29.30;64.30
55135;DHT22;41031;44.750;11.308;2022-09-09T09:39:38;29.60;61.70
55135;DHT22;41031;44.750;11.308;2022-09-09T09:42:27;29.70;60.80
55135;DHT22;41031;44.750;11.308;2022-09-09T09:44:56;29.80;60.40
55135;DHT22;41031;44.750;11.308;2022-09-09T09:47:33;30.00;59.30
55135;DHT22;41031;44.750;11.308;2022-09-09T09:50:19;30.10;57.10
55135;DHT22;41031;44.750;11.308;2022-09-09T09:52:58;30.20;57.00
55135;DHT22;41031;44.750;11.308;2022-09-09T09:55:29;30.30;57.00
55135;DHT22;41031;44.750;11.308;2022-09-09T09:58:05;30.40;55.40
55135;DHT22;41031;44.750;11.308;2022-09-09T10:00:33;30.50;54.40
55135;DHT22;41031;44.750;11.308;2022-09-09T10:05:56;30.70;53.60
55135;DHT22;41031;44.750;11.308;2022-09-09T10:08:27;30.80;53.10
55135;DHT22;41031;44.750;11.308;2022-09-09T10:13:55;30.80;52.50
55135;DHT22;41031;44.750;11.308;2022-09-09T10:19:16;30.80;51.70
55135;DHT22;41031;44.750;11.308;2022-09-09T10:25:09;30.90;50.90
55135;DHT22;41031;44.750;11.308;2022-09-09T10:30:39;31.20;52.20
55135;DHT22;41031;44.750;11.308;2022-09-09T10:33:16;31.10;52.40
55135;DHT22;41031;44.750;11.308;2022-09-09T10:35:53;31.20;50.20
55135;DHT22;41031;44.750;11.308;2022-09-09T10:38:32;31.10;49.00
55135;DHT22;41031;44.750;11.308;2022-09-09T10:57:36;31.30;47.70
55135;DHT22;41031;44.750;11.308;2022-09-09T11:00:10;31.20;47.70
55135;DHT22;41031;44.750;11.308;2022-09-09T11:02:41;31.20;48.90
55135;DHT22;41031;44.750;11.308;2022-09-09T11:06:04;31.30;47.50
55135;DHT22;41031;44.750;11.308;2022-09-09T11:08:19;31.40;47.40
55135;DHT22;41031;44.750;11.308;2022-09-09T11:13:41;31.30;47.90
55135;DHT22;41031;44.750;11.308;2022-09-09T11:16:29;31.40;46.70
55135;DHT22;41031;44.750;11.308;2022-09-09T11:19:02;31.40;46.90
55135;DHT22;41031;44.750;11.308;2022-09-09T11:21:46;31.60;46.80
55135;DHT22;41031;44.750;11.308;2022-09-09T11:37:57;31.50;44.20
55135;DHT22;41031;44.750;11.308;2022-09-09T11:40:27;31.50;45.30
55135;DHT22;41031;44.750;11.308;2022-09-09T11:43:03;31.40;46.30
55135;DHT22;41031;44.750;11.308;2022-09-09T11:45:33;31.40;45.70
55135;DHT22;41031;44.750;11.308;2022-09-09T11:48:03;31.40;45.00
55135;DHT22;41031;44.750;11.308;2022-09-09T11:50:37;31.40;45.10
55135;DHT22;41031;44.750;11.308;2022-09-09T11:53:20;31.40;45.80
55135;DHT22;41031;44.750;11.308;2022-09-09T11:56:12;31.50;45.80
55135;DHT22;41031;44.750;11.308;2022-09-09T11:58:58;31.50;47.40
55135;DHT22;41031;44.750;11.308;2022-09-09T12:04:25;31.60;45.20
55135;DHT22;41031;44.750;11.308;2022-09-09T12:19:42;31.70;44.00
55135;DHT22;41031;44.750;11.308;2022-09-09T12:28:16;31.50;52.50
55135;DHT22;41031;44.750;11.308;2022-09-09T12:33:39;31.00;54.20
55135;DHT22;41031;44.750;11.308;2022-09-09T12:36:30;30.80;55.10
55135;DHT22;41031;44.750;11.308;2022-09-09T12:39:15;30.70;55.30
55135;DHT22;41031;44.750;11.308;2022-09-09T12:41:52;30.60;55.40
55135;DHT22;41031;44.750;11.308;2022-09-09T12:44:26;30.50;55.50
55135;DHT22;41031;44.750;11.308;2022-09-09T12:46:59;30.40;55.20
55135;DHT22;41031;44.750;11.308;2022-09-09T12:49:34;30.30;56.90
55135;DHT22;41031;44.750;11.308;2022-09-09T12:52:04;30.20;56.80
55135;DHT22;41031;44.750;11.308;2022-09-09T12:54:35;30.20;56.10
55135;DHT22;41031;44.750;11.308;2022-09-09T12:57:04;30.20;57.20
55135;DHT22;41031;44.750;11.308;2022-09-09T12:59:37;30.20;56.00
55135;DHT22;41031;44.750;11.308;2022-09-09T13:02:16;30.20;55.00
55135;DHT22;41031;44.750;11.308;2022-09-09T13:04:44;30.20;55.30
55135;DHT22;41031;44.750;11.308;2022-09-09T13:07:14;30.30;55.70
55135;DHT22;41031;44.750;11.308;2022-09-09T13:09:44;30.20;54.50
55135;DHT22;41031;44.750;11.308;2022-09-09T13:12:18;30.20;53.70
55135;DHT22;41031;44.750;11.308;2022-09-09T13:14:51;30.20;51.80
55135;DHT22;41031;44.750;11.308;2022-09-09T13:17:26;30.20;52.90
55135;DHT22;41031;44.750;11.308;2022-09-09T13:19:56;30.20;54.20
55135;DHT22;41031;44.750;11.308;2022-09-09T13:22:33;30.10;53.90
55135;DHT22;41031;44.750;11.308;2022-09-09T13:27:50;30.20;53.40
55135;DHT22;41031;44.750;11.308;2022-09-09T13:35:54;30.20;53.30
55135;DHT22;41031;44.750;11.308;2022-09-09T13:38:22;30.20;54.70
55135;DHT22;41031;44.750;11.308;2022-09-09T13:40:59;30.20;54.00
55135;DHT22;41031;44.750;11.308;2022-09-09T13:43:34;30.20;54.60
55135;DHT22;41031;44.750;11.308;2022-09-09T13:46:04;30.20;54.40
55135;DHT22;41031;44.750;11.308;2022-09-09T13:48:32;30.20;53.90
55135;DHT22;41031;44.750;11.308;2022-09-09T13:51:02;30.20;54.70
55135;DHT22;41031;44.750;11.308;2022-09-09T13:53:31;30.10;54.90
55135;DHT22;41031;44.750;11.308;2022-09-09T13:55:59;30.10;54.00
55135;DHT22;41031;44.750;11.308;2022-09-09T13:58:26;30.10;55.10
55135;DHT22;41031;44.750;11.308;2022-09-09T14:00:54;30.10;54.60
55135;DHT22;41031;44.750;11.308;2022-09-09T14:03:21;30.00;54.70
55135;DHT22;41031;44.750;11.308;2022-09-09T14:05:48;30.00;55.20
55135;DHT22;41031;44.750;11.308;2022-09-09T14:08:21;29.90;55.70
55135;DHT22;41031;44.750;11.308;2022-09-09T14:10:49;30.00;55.30
55135;DHT22;41031;44.750;11.308;2022-09-09T14:13:16;30.00;54.90
55135;DHT22;41031;44.750;11.308;2022-09-09T14:15:43;30.00;54.60
55135;DHT22;41031;44.750;11.308;2022-09-09T14:18:13;29.90;54.50
55135;DHT22;41031;44.750;11.308;2022-09-09T14:20:40;29.90;54.50
55135;DHT22;41031;44.750;11.308;2022-09-09T14:23:10;29.80;54.70
55135;DHT22;41031;44.750;11.308;2022-09-09T14:25:40;29.80;54.70
55135;DHT22;41031;44.750;11.308;2022-09-09T14:28:10;29.80;54.00
55135;DHT22;41031;44.750;11.308;2022-09-09T14:30:38;29.70;54.30
55135;DHT22;41031;44.750;11.308;2022-09-09T14:33:07;29.70;54.20
55135;DHT22;41031;44.750;11.308;2022-09-09T14:35:35;29.70;54.20
55135;DHT22;41031;44.750;11.308;2022-09-09T14:38:04;29.60;54.60
55135;DHT22;41031;44.750;11.308;2022-09-09T14:40:31;29.60;53.90
55135;DHT22;41031;44.750;11.308;2022-09-09T14:42:58;29.50;54.10
55135;DHT22;41031;44.750;11.308;2022-09-09T14:45:25;29.40;55.00
55135;DHT22;41031;44.750;11.308;2022-09-09T14:47:52;29.40;54.20
55135;DHT22;41031;44.750;11.308;2022-09-09T14:50:20;29.30;54.20
55135;DHT22;41031;44.750;11.308;2022-09-09T14:52:48;29.30;54.10
55135;DHT22;41031;44.750;11.308;2022-09-09T14:55:15;29.30;55.10
55135;DHT22;41031;44.750;11.308;2022-09-09T14:57:42;29.20;54.70
55135;DHT22;41031;44.750;11.308;2022-09-09T15:00:10;29.30;55.40
55135;DHT22;41031;44.750;11.308;2022-09-09T15:02:39;29.30;55.80
55135;DHT22;41031;44.750;11.308;2022-09-09T15:05:06;29.30;55.70
55135;DHT22;41031;44.750;11.308;2022-09-09T15:07:34;29.30;55.20
55135;DHT22;41031;44.750;11.308;2022-09-09T15:10:01;29.30;54.00
55135;DHT22;41031;44.750;11.308;2022-09-09T15:12:28;29.20;54.20
55135;DHT22;41031;44.750;11.308;2022-09-09T15:14:55;29.10;54.20
55135;DHT22;41031;44.750;11.308;2022-09-09T15:17:22;29.20;54.80
55135;DHT22;41031;44.750;11.308;2022-09-09T15:19:51;29.10;55.50
55135;DHT22;41031;44.750;11.308;2022-09-09T15:22:18;29.10;55.20
55135;DHT22;41031;44.750;11.308;2022-09-09T15:24:45;29.10;55.00
55135;DHT22;41031;44.750;11.308;2022-09-09T15:27:12;29.10;54.80
55135;DHT22;41031;44.750;11.308;2022-09-09T15:29:41;29.10;54.50
55135;DHT22;41031;44.750;11.308;2022-09-09T15:32:08;29.00;54.50
55135;DHT22;41031;44.750;11.308;2022-09-09T15:34:35;29.00;54.80
55135;DHT22;41031;44.750;11.308;2022-09-09T15:37:02;28.90;55.70
55135;DHT22;41031;44.750;11.308;2022-09-09T15:39:29;28.80;56.10
55135;DHT22;41031;44.750;11.308;2022-09-09T15:41:59;28.70;55.80
55135;DHT22;41031;44.750;11.308;2022-09-09T15:44:27;28.60;56.00
55135;DHT22;41031;44.750;11.308;2022-09-09T15:46:54;28.60;56.20
55135;DHT22;41031;44.750;11.308;2022-09-09T15:49:25;28.60;56.10
55135;DHT22;41031;44.750;11.308;2022-09-09T15:51:57;28.60;55.60
55135;DHT22;41031;44.750;11.308;2022-09-09T15:54:25;28.60;55.40
55135;DHT22;41031;44.750;11.308;2022-09-09T15:56:55;28.60;55.50
55135;DHT22;41031;44.750;11.308;2022-09-09T15:59:23;28.50;55.00
55135;DHT22;41031;44.750;11.308;2022-09-09T16:01:51;28.50;55.60
55135;DHT22;41031;44.750;11.308;2022-09-09T16:04:19;28.50;55.60
55135;DHT22;41031;44.750;11.308;2022-09-09T16:06:56;28.50;55.60
55135;DHT22;41031;44.750;11.308;2022-09-09T16:09:26;28.40;56.00
55135;DHT22;41031;44.750;11.308;2022-09-09T16:11:56;28.40;55.90
55135;DHT22;41031;44.750;11.308;2022-09-09T16:14:23;28.40;55.40
55135;DHT22;41031;44.750;11.308;2022-09-09T16:16:52;28.40;54.40
55135;DHT22;41031;44.750;11.308;2022-09-09T16:19:19;28.40;55.40
55135;DHT22;41031;44.750;11.308;2022-09-09T16:21:48;28.30;55.60
55135;DHT22;41031;44.750;11.308;2022-09-09T16:24:17;28.20;55.60
55135;DHT22;41031;44.750;11.308;2022-09-09T16:26:49;28.20;56.10
55135;DHT22;41031;44.750;11.308;2022-09-09T16:29:18;28.10;56.00
55135;DHT22;41031;44.750;11.308;2022-09-09T16:31:46;28.00;56.30
55135;DHT22;41031;44.750;11.308;2022-09-09T16:34:14;28.00;57.30
55135;DHT22;41031;44.750;11.308;2022-09-09T16:36:43;27.90;57.40
55135;DHT22;41031;44.750;11.308;2022-09-09T16:39:15;27.80;58.10
55135;DHT22;41031;44.750;11.308;2022-09-09T16:41:43;27.80;58.90
55135;DHT22;41031;44.750;11.308;2022-09-09T16:44:13;27.80;59.50
55135;DHT22;41031;44.750;11.308;2022-09-09T16:46:42;27.70;60.00
55135;DHT22;41031;44.750;11.308;2022-09-09T16:49:11;27.60;60.40
55135;DHT22;41031;44.750;11.308;2022-09-09T16:51:49;27.60;60.90
55135;DHT22;41031;44.750;11.308;2022-09-09T16:54:16;27.60;60.90
55135;DHT22;41031;44.750;11.308;2022-09-09T16:56:46;27.50;60.60
55135;DHT22;41031;44.750;11.308;2022-09-09T16:59:16;27.50;61.10
55135;DHT22;41031;44.750;11.308;2022-09-09T17:01:44;27.50;61.70
55135;DHT22;41031;44.750;11.308;2022-09-09T17:04:19;27.50;61.80
55135;DHT22;41031;44.750;11.308;2022-09-09T17:06:52;27.50;61.60
55135;DHT22;41031;44.750;11.308;2022-09-09T17:09:20;27.40;61.70
55135;DHT22;41031;44.750;11.308;2022-09-09T17:11:49;27.50;61.90
55135;DHT22;41031;44.750;11.308;2022-09-09T17:14:22;27.50;62.40
55135;DHT22;41031;44.750;11.308;2022-09-09T17:16:50;27.50;62.80
55135;DHT22;41031;44.750;11.308;2022-09-09T17:19:17;27.50;63.00
55135;DHT22;41031;44.750;11.308;2022-09-09T17:21:45;27.60;63.20
55135;DHT22;41031;44.750;11.308;2022-09-09T17:24:34;27.60;63.40
55135;DHT22;41031;44.750;11.308;2022-09-09T17:27:01;27.60;63.60
55135;DHT22;41031;44.750;11.308;2022-09-09T17:29:28;27.60;64.10
55135;DHT22;41031;44.750;11.308;2022-09-09T17:31:56;27.50;64.30
55135;DHT22;41031;44.750;11.308;2022-09-09T17:34:23;27.40;64.20
55135;DHT22;41031;44.750;11.308;2022-09-09T17:36:51;27.30;64.20
55135;DHT22;41031;44.750;11.308;2022-09-09T17:39:19;27.30;64.40
55135;DHT22;41031;44.750;11.308;2022-09-09T17:41:45;27.10;64.40
55135;DHT22;41031;44.750;11.308;2022-09-09T17:44:13;27.00;64.50
55135;DHT22;41031;44.750;11.308;2022-09-09T17:46:41;26.90;64.60
55135;DHT22;41031;44.750;11.308;2022-09-09T17:49:13;26.80;64.90
55135;DHT22;41031;44.750;11.308;2022-09-09T17:51:42;26.80;65.30
55135;DHT22;41031;44.750;11.308;2022-09-09T17:54:19;26.70;65.60
55135;DHT22;41031;44.750;11.308;2022-09-09T17:56:47;26.50;66.10
55135;DHT22;41031;44.750;11.308;2022-09-09T17:59:16;26.40;66.30
55135;DHT22;41031;44.750;11.308;2022-09-09T18:01:45;26.20;66.90